Aeroporto :
LOGIN :

Iscrizione | Disclaimer

   EN    FR    IT 

 










Sommario :    VFR   VFR Marginale   IFR   IFR Intensivo   IFR Molto Intensivo
Visibilità : 
Base nubi : 
>= 8 km
>= 3000ft
5 / 8 km
1000 / 3000 ft
1500m / 5 km
500 / 1000 ft
800 / 1500m
200 / 500 ft
< 800m
< 200 ft
Simboli :   Temporali  Nebbia  Neve Forte  Precipitazioni Forti  Vento > 20 kt
SIGMETs :   Varie  Temporali  Ghiacco  Turbolenza  Onda orograficha  Ceneri Vulcaniche






- Altitudine del aeroporto : 36 ft
- Codice IATA : LTQ


LFAT - Le Touquet

ULTIMO METAR :
  • 041700Z AUTO 18010KT 140V200 9999 BKN035/// OVC041/// ///CB 06/02 Q0983 BECMG SCT015 BKN025

METARs OBSOLETI :
  • 041630Z AUTO 18008KT 150V220 9999 BKN028/// BKN037/// OVC170/// ///TCU 06/02 Q0983 BECMG SCT015 BKN025
  • 041600Z AUTO 22006KT 170V270 9999 BKN019/// BKN028/// BKN044/// ///TCU 06/04 Q0982 TEMPO 20017G27KT 3000 SHRAGS BKN013CB
  • 041530Z AUTO 24010KT 210V270 9999 SCT019/// BKN031/// BKN046/// ///TCU 06/03 Q0982 TEMPO 20017G27KT 3000 SHRAGS BKN013CB
  • 041500Z AUTO 22013KT 190V250 9999 -RA SCT018/// BKN025/// BKN032/// ///TCU 06/03 Q0982 TEMPO 20017G27KT 3000 SHRAGS BKN013CB
  • 041430Z AUTO 21014KT 180V250 9999 BKN026/// BKN035/// ///TCU 07/03 Q0981 TEMPO 20017G27KT 3000 SHRAGS BKN013CB

TAF TAF LFAT
Valido dal 04 a 15 ore il 05 a 00 ore UTC


041400Z 0415/0424 22015KT 9999 SCT015 BKN025
TEMPO 0415/0417 20017G27KT 3000 SHRAGS BKN013CB
BECMG 0417/0420 16013KT
ATIS : +33 3 21 06 62 84



MetMap, La meteo Aeronautica in un colpo d'occhio ! - Copyright ORBIFLY Dicembre 2007 - Disclaimer

ORBIFLY MET'MAP TEAM :

Programmazione e sviluppo : Alexandra Zaïnal
Concezione : Baudouin d'Aumeries
Aiuto per la programmazione : Marc-Olivier Méhu
Supporto tecnico e logistico : Manuel Goepfert
Aiuto per la traduzione : Arnaldo La Scala

Contatto : metmap@orbifly.com




FONTI E CREDITI :

   NOAA